Time;durP1;ratioP1;P1;durP2;ratioP2;P2;SDS_P1;SDS_P2;PMS_P1;PMS_P2;Temp;Humidity;BMP_temperature;BMP_pressure;BME280_temperature;BME280_humidity;BME280_pressure;Samples;Min_cycle;Max_cycle;Signal;HPM_P1;HPM_P2
2021/03/13 00:01:18;;;;;;;0.70;0.70;;;;;;;4.38;86.98;98231.69;4774065;28;20390;-70
2021/03/13 00:03:43;;;;;;;2.20;0.68;;;;;;;4.43;86.78;98229.97;4759714;28;20037;-70
2021/03/13 00:06:09;;;;;;;0.60;0.60;;;;;;;4.39;87.77;98239.38;4761543;28;21184;-70
2021/03/13 00:08:37;;;;;;;1.33;0.70;;;;;;;4.70;85.50;98239.31;4772724;28;20034;-70
2021/03/13 00:11:03;;;;;;;0.70;0.70;;;;;;;4.61;85.83;98224.78;4758153;28;20088;-70
2021/03/13 00:13:29;;;;;;;0.60;0.60;;;;;;;4.37;86.90;98222.28;4765643;28;23717;-70
2021/03/13 00:15:55;;;;;;;0.68;0.60;;;;;;;4.52;85.51;98221.41;4809653;28;20022;-70
2021/03/13 00:18:20;;;;;;;0.63;0.63;;;;;;;4.41;85.79;98230.84;4816734;28;20049;-70
2021/03/13 00:20:47;;;;;;;2.38;0.88;;;;;;;4.56;85.11;98230.81;4876931;28;20495;-70
2021/03/13 00:23:12;;;;;;;1.40;0.90;;;;;;;4.63;85.94;98227.34;4911652;28;20027;-72
2021/03/13 00:25:38;;;;;;;2.33;2.13;;;;;;;4.71;84.92;98212.78;4934353;28;20447;-73
2021/03/13 00:28:05;;;;;;;1.40;1.00;;;;;;;5.04;83.82;98231.47;4980642;28;20022;-76
2021/03/13 00:30:43;;;;;;;2.70;0.90;;;;;;;5.53;80.37;98218.34;4990257;28;20029;-76
2021/03/13 00:33:16;;;;;;;2.75;0.80;;;;;;;5.40;81.17;98228.69;4994753;28;20030;-76
2021/03/13 00:35:44;;;;;;;0.60;0.60;;;;;;;5.40;81.57;98218.41;4994911;28;20089;-76
2021/03/13 00:38:10;;;;;;;0.80;0.80;;;;;;;5.44;81.93;98208.13;4994606;28;20494;-76
2021/03/13 00:40:39;;;;;;;3.28;0.82;;;;;;;5.45;82.53;98205.53;4994764;28;20034;-76
2021/03/13 00:43:06;;;;;;;3.78;0.98;;;;;;;5.29;82.45;98206.50;4994530;28;20106;-77
2021/03/13 00:45:32;;;;;;;2.90;1.00;;;;;;;5.26;82.81;98209.94;4994444;28;20034;-76
2021/03/13 00:47:58;;;;;;;2.47;0.90;;;;;;;5.30;82.76;98206.50;4986671;28;20018;-76
2021/03/13 00:50:27;;;;;;;2.10;0.90;;;;;;;5.31;83.23;98197.91;4994669;28;20077;-76
2021/03/13 00:52:52;;;;;;;2.30;0.80;;;;;;;5.47;82.54;98198.69;4994240;28;20036;-75
2021/03/13 00:55:18;;;;;;;1.40;0.80;;;;;;;5.34;82.94;98184.22;4994826;28;20105;-74
2021/03/13 00:57:44;;;;;;;1.48;0.90;;;;;;;5.37;83.01;98182.47;4994365;28;20030;-74
2021/03/13 08:01:51;;;;;;;11.57;5.40;;;;;;;10.14;54.08;97748.47;6174317;22;883499;-71
2021/03/13 08:04:38;;;;;;;11.88;6.97;;;;;;;10.36;53.47;97753.84;6222849;23;20077;-71
2021/03/13 08:07:05;;;;;;;20.23;9.65;;;;;;;9.95;54.08;97737.88;6222658;23;19996;-71
2021/03/13 08:09:30;;;;;;;19.63;10.07;;;;;;;9.90;54.45;97745.78;6222619;23;20004;-71
2021/03/13 08:11:56;;;;;;;5.00;2.80;;;;;;;10.01;54.77;97743.72;6200076;23;20028;-72
2021/03/13 08:14:35;;;;;;;3.72;2.90;;;;;;;9.94;54.01;97742.22;6192413;23;20001;-71
2021/03/13 08:17:10;;;;;;;5.97;3.70;;;;;;;9.86;55.05;97739.00;6193007;23;20004;-71
2021/03/13 08:19:37;;;;;;;2.25;1.15;;;;;;;9.71;54.62;97729.16;6192543;23;20071;-71
2021/03/13 08:22:16;;;;;;;1.65;1.13;;;;;;;9.75;53.63;97723.00;6192405;23;20001;-71
2021/03/13 08:24:48;;;;;;;4.65;2.00;;;;;;;9.97;53.85;97711.06;6192769;23;20001;-71
2021/03/13 08:27:16;;;;;;;2.78;1.08;;;;;;;10.21;52.15;97729.28;6192418;23;20012;-72
2021/03/13 08:29:53;;;;;;;2.15;1.15;;;;;;;10.03;51.97;97712.59;6192379;23;20472;-71
2021/03/13 08:32:56;;;;;;;2.97;2.17;;;;;;;9.75;52.45;97730.75;6192135;23;20004;-71
2021/03/13 08:35:40;;;;;;;2.13;1.00;;;;;;;10.08;51.63;97708.13;6192217;23;20008;-71
2021/03/13 08:38:06;;;;;;;2.08;1.02;;;;;;;10.64;49.98;97694.16;6192583;23;20015;-71
2021/03/13 08:40:32;;;;;;;2.92;0.90;;;;;;;10.70;49.58;97691.34;6192458;23;20547;-71
2021/03/13 08:42:58;;;;;;;3.28;0.90;;;;;;;10.36;49.34;97686.53;6188163;23;20024;-71
2021/03/13 08:45:23;;;;;;;3.55;2.13;;;;;;;10.22;49.69;97686.97;6185316;23;20079;-71
2021/03/13 08:47:52;;;;;;;7.00;1.90;;;;;;;10.18;49.56;97680.19;6185717;23;20001;-71
2021/03/13 08:50:45;;;;;;;9.32;2.92;;;;;;;10.49;49.33;97682.56;6185654;23;20336;-71
2021/03/13 08:53:28;;;;;;;5.38;1.90;;;;;;;10.52;49.18;97704.03;6185240;23;20012;-71
2021/03/13 08:55:54;;;;;;;3.65;1.05;;;;;;;10.57;49.09;97684.91;6185661;23;20036;-71
2021/03/13 08:59:07;;;;;;;0.68;0.50;;;;;;;10.42;48.93;97676.78;6185401;23;20063;-71
2021/03/13 09:01:32;;;;;;;6.05;2.28;;;;;;;10.14;48.29;97665.66;6064880;23;20014;-71
2021/03/13 09:03:58;;;;;;;3.55;1.60;;;;;;;10.09;48.62;97652.03;6065346;23;20011;-71
2021/03/13 09:06:24;;;;;;;3.75;1.67;;;;;;;9.99;47.44;97652.34;6128769;23;20083;-70
2021/03/13 09:08:49;;;;;;;5.25;1.10;;;;;;;9.93;48.11;97626.69;6185263;23;20385;-71
2021/03/13 09:11:27;;;;;;;1.88;0.90;;;;;;;9.95;48.16;97639.56;6185186;23;20009;-70
2021/03/13 09:14:00;;;;;;;2.75;0.85;;;;;;;10.01;48.72;97640.22;6185444;23;20336;-70
2021/03/13 09:16:25;;;;;;;2.47;1.00;;;;;;;10.07;47.53;97627.97;6185470;23;19998;-71
2021/03/13 09:18:57;;;;;;;2.95;1.02;;;;;;;10.07;46.91;97623.63;6185122;23;20298;-70
2021/03/13 09:21:43;;;;;;;1.38;0.70;;;;;;;10.08;46.81;97614.13;6185296;23;20415;-71
2021/03/13 09:24:11;;;;;;;5.57;1.73;;;;;;;10.18;47.13;97610.31;6185057;23;20494;-70
2021/03/13 09:26:36;;;;;;;3.67;0.80;;;;;;;10.33;46.80;97602.00;6185159;23;20000;-71
2021/03/13 09:29:03;;;;;;;1.60;0.70;;;;;;;10.36;45.85;97601.91;6185349;23;20008;-70
2021/03/13 09:31:28;;;;;;;2.88;1.02;;;;;;;10.39;46.55;97599.19;6184770;23;20060;-70
2021/03/13 09:34:11;;;;;;;4.13;1.73;;;;;;;10.50;46.53;97586.72;6183491;23;20005;-70
2021/03/13 09:36:36;;;;;;;9.82;4.18;;;;;;;10.64;46.60;97582.78;6185132;23;20005;-71
2021/03/13 09:39:02;;;;;;;1.45;1.00;;;;;;;10.78;45.77;97602.09;6184942;23;20003;-70
2021/03/13 09:41:27;;;;;;;3.40;1.75;;;;;;;10.60;45.69;97581.22;6184939;23;19997;-70
2021/03/13 09:43:53;;;;;;;3.38;0.90;;;;;;;10.65;46.06;97580.13;6184841;23;20028;-72
2021/03/13 09:46:19;;;;;;;2.60;0.80;;;;;;;10.74;46.07;97578.94;6185184;23;20005;-70
2021/03/13 09:48:45;;;;;;;3.55;1.00;;;;;;;10.76;46.36;97572.78;6184906;23;20367;-70
2021/03/13 09:51:10;;;;;;;1.25;0.63;;;;;;;10.71;46.03;97584.22;6184555;23;20011;-70
2021/03/13 09:53:42;;;;;;;1.98;1.00;;;;;;;10.67;45.81;97577.47;6184615;23;20060;-70
2021/03/13 09:56:07;;;;;;;20.08;7.07;;;;;;;10.67;46.09;97577.47;6184874;23;20055;-70
2021/03/13 09:58:33;;;;;;;5.18;1.17;;;;;;;10.78;46.50;97580.50;6184817;23;20004;-73
2021/03/13 10:01:00;;;;;;;2.78;1.23;;;;;;;10.68;45.56;97568.78;6194425;23;20433;-70
2021/03/13 10:03:26;;;;;;;2.22;1.05;;;;;;;10.69;45.81;97573.09;6214673;23;20005;-71
2021/03/13 10:05:56;;;;;;;2.15;1.35;;;;;;;10.54;45.84;97565.00;6215193;23;20032;-70
2021/03/13 10:08:32;;;;;;;2.22;1.20;;;;;;;10.58;45.71;97572.63;6214890;23;20004;-70
2021/03/13 10:11:01;;;;;;;7.53;2.90;;;;;;;10.54;46.20;97566.75;6214342;23;20028;-70
2021/03/13 10:13:26;;;;;;;2.87;1.07;;;;;;;10.53;46.74;97549.50;6214986;23;20134;-70
2021/03/13 10:15:52;;;;;;;5.65;2.15;;;;;;;10.45;46.94;97565.34;6214708;23;20001;-70
2021/03/13 10:18:24;;;;;;;3.28;1.20;;;;;;;10.44;48.45;97561.06;6214660;23;20011;-70
2021/03/13 10:20:50;;;;;;;3.03;1.20;;;;;;;10.39;48.13;97573.31;6214860;23;20076;-70
2021/03/13 10:23:25;;;;;;;2.97;1.17;;;;;;;10.39;48.34;97562.94;6214417;23;20439;-70
2021/03/13 10:26:00;;;;;;;2.72;1.67;;;;;;;10.40;47.98;97549.13;6214753;23;20123;-70
2021/03/13 10:28:28;;;;;;;2.72;1.17;;;;;;;10.49;48.29;97538.44;6214511;23;20001;-70
2021/03/13 10:31:04;;;;;;;4.68;1.70;;;;;;;10.48;48.24;97535.88;6214172;23;20028;-70
2021/03/13 10:33:30;;;;;;;5.72;0.90;;;;;;;10.43;48.60;97536.03;6214706;23;20000;-70
2021/03/13 10:35:56;;;;;;;14.95;5.38;;;;;;;10.49;47.94;97528.06;6214871;23;20001;-70
2021/03/13 10:38:21;;;;;;;10.25;3.08;;;;;;;10.61;47.77;97526.75;6214409;23;20012;-70
2021/03/13 10:40:49;;;;;;;8.60;2.83;;;;;;;10.63;47.31;97526.69;6214134;23;20079;-70
2021/03/13 10:43:39;;;;;;;4.40;1.83;;;;;;;10.68;48.18;97523.00;6214563;23;20004;-70
2021/03/13 10:46:12;;;;;;;12.77;4.85;;;;;;;10.66;47.62;97508.44;6196347;23;20009;-70
2021/03/13 10:48:57;;;;;;;4.55;1.35;;;;;;;10.67;47.47;97491.97;6214608;23;20004;-70
2021/03/13 10:51:29;;;;;;;2.75;0.82;;;;;;;10.64;48.08;97530.97;6214129;23;20022;-71
2021/03/13 10:53:57;;;;;;;1.75;0.80;;;;;;;10.60;47.87;97513.88;6214310;23;20000;-70
2021/03/13 10:56:22;;;;;;;7.82;2.63;;;;;;;10.65;47.83;97514.53;6214393;23;20001;-70
2021/03/13 10:58:49;;;;;;;7.00;2.95;;;;;;;10.69;47.70;97503.16;6214539;23;20050;-70
2021/03/13 11:01:15;;;;;;;1.25;0.75;;;;;;;10.76;47.40;97517.53;6214128;23;20005;-70
2021/03/13 11:03:44;;;;;;;1.63;0.60;;;;;;;10.69;47.56;97492.78;6214610;23;20425;-70
2021/03/13 11:06:30;;;;;;;4.53;2.85;;;;;;;10.73;47.51;97499.50;6214174;23;20000;-70
2021/03/13 11:08:57;;;;;;;2.45;0.88;;;;;;;10.74;47.34;97503.81;6214150;23;20494;-70
2021/03/13 11:11:23;;;;;;;1.98;1.00;;;;;;;10.73;47.12;97494.31;6213828;23;20456;-70
2021/03/13 11:13:49;;;;;;;0.95;0.63;;;;;;;10.79;47.37;97492.34;6214197;23;20001;-70
2021/03/13 11:16:14;;;;;;;1.88;0.80;;;;;;;10.83;47.81;97493.09;6214572;23;20001;-70
2021/03/13 11:18:39;;;;;;;0.60;0.60;;;;;;;10.79;46.80;97483.75;6214545;23;20565;-70
2021/03/13 11:21:05;;;;;;;1.27;0.98;;;;;;;10.79;46.86;97483.75;6213845;23;20007;-70
2021/03/13 11:23:31;;;;;;;2.90;0.80;;;;;;;10.86;46.57;97489.50;6187520;23;20005;-70
2021/03/13 11:25:56;;;;;;;0.68;0.68;;;;;;;10.95;46.52;97490.00;6214370;23;20004;-70
2021/03/13 11:28:22;;;;;;;1.02;0.77;;;;;;;10.95;46.45;97474.44;6214536;23;20008;-70
2021/03/13 11:30:48;;;;;;;1.10;0.50;;;;;;;11.00;45.83;97445.75;6213978;23;20557;-70
2021/03/13 11:33:14;;;;;;;0.60;0.60;;;;;;;11.04;46.07;97473.22;6214371;23;19996;-70
2021/03/13 11:35:40;;;;;;;1.95;0.70;;;;;;;11.10;46.30;97477.31;6213936;23;20010;-70
2021/03/13 11:38:05;;;;;;;2.67;0.60;;;;;;;11.23;45.98;97470.72;6213921;23;20008;-70
2021/03/13 11:40:31;;;;;;;1.67;0.82;;;;;;;11.23;45.66;97466.38;6213735;23;20008;-71
2021/03/13 11:42:58;;;;;;;3.90;0.70;;;;;;;11.30;46.05;97475.56;6214209;23;20025;-71
2021/03/13 11:45:24;;;;;;;0.63;0.60;;;;;;;11.31;44.98;97458.25;6213942;23;20313;-71
2021/03/13 11:47:50;;;;;;;0.80;0.75;;;;;;;11.31;45.91;97466.03;6213531;23;20000;-72
2021/03/13 11:50:18;;;;;;;3.25;0.85;;;;;;;11.24;45.89;97467.22;6212896;23;20459;-71
2021/03/13 11:52:44;;;;;;;1.92;0.68;;;;;;;11.38;46.29;97462.31;6213301;23;20075;-71
2021/03/13 11:55:11;;;;;;;0.90;0.50;;;;;;;11.34;45.89;97471.09;6212985;23;20504;-71
2021/03/13 11:57:37;;;;;;;1.58;0.90;;;;;;;11.32;45.68;97447.84;6212796;23;20055;-71
2021/03/13 12:00:12;;;;;;;1.20;0.60;;;;;;;11.32;45.80;97454.78;6213971;23;20001;-71
2021/03/13 12:02:38;;;;;;;1.15;0.90;;;;;;;11.38;44.91;97440.72;6208964;23;20088;-71
2021/03/13 12:05:05;;;;;;;2.33;0.60;;;;;;;11.35;45.49;97457.22;6209025;23;20035;-71
2021/03/13 12:07:31;;;;;;;0.70;0.70;;;;;;;11.29;44.88;97452.31;6208984;23;20040;-71
2021/03/13 12:09:56;;;;;;;10.82;5.38;;;;;;;11.38;45.75;97457.13;6212676;23;20000;-71
2021/03/13 12:12:21;;;;;;;1.25;0.95;;;;;;;11.28;44.73;97455.81;6213238;23;19996;-71
2021/03/13 12:14:47;;;;;;;0.80;0.80;;;;;;;11.25;45.19;97450.75;6213281;23;20382;-71
2021/03/13 12:17:12;;;;;;;1.95;0.60;;;;;;;11.25;45.03;97466.31;6213523;23;20391;-71
2021/03/13 12:19:39;;;;;;;4.38;1.00;;;;;;;11.29;45.63;97455.75;6209859;23;20312;-72
2021/03/13 12:22:05;;;;;;;2.72;1.58;;;;;;;11.34;45.88;97471.09;6188898;23;20032;-72
2021/03/13 12:24:31;;;;;;;2.72;1.02;;;;;;;11.43;45.96;97486.28;6215719;23;20016;-72
2021/03/13 12:26:56;;;;;;;2.95;1.40;;;;;;;11.38;45.77;97483.03;6214244;23;20371;-71
2021/03/13 12:29:21;;;;;;;4.60;2.53;;;;;;;11.35;46.43;97456.38;6212901;23;20043;-71
2021/03/13 12:31:47;;;;;;;1.52;0.77;;;;;;;11.42;46.60;97474.22;6212820;23;20008;-71
2021/03/13 12:34:12;;;;;;;0.90;0.65;;;;;;;11.33;47.01;97470.28;6213204;23;20004;-71
2021/03/13 12:36:37;;;;;;;0.90;0.65;;;;;;;11.28;47.60;97466.19;6212958;23;20080;-71
2021/03/13 12:39:04;;;;;;;5.90;2.20;;;;;;;11.15;48.03;97462.41;6212179;23;20446;-71
2021/03/13 12:41:29;;;;;;;3.25;0.95;;;;;;;11.21;48.53;97490.66;6211103;23;20000;-71
2021/03/13 12:43:54;;;;;;;2.92;2.17;;;;;;;11.36;48.56;97438.16;6210969;23;20005;-71
2021/03/13 12:46:20;;;;;;;1.92;0.57;;;;;;;11.39;48.63;97453.59;6211249;23;20076;-71
2021/03/13 12:48:47;;;;;;;1.23;0.88;;;;;;;11.41;48.84;97445.75;6211214;23;20028;-71
2021/03/13 12:51:14;;;;;;;1.98;1.20;;;;;;;11.24;49.50;97452.50;6210587;23;20072;-71
2021/03/13 12:53:43;;;;;;;0.88;0.68;;;;;;;11.24;50.05;97470.66;6211125;23;19997;-71
2021/03/13 12:56:09;;;;;;;11.10;5.57;;;;;;;11.26;49.86;97458.44;6184963;23;20005;-71
2021/03/13 12:58:34;;;;;;;2.05;0.75;;;;;;;11.40;49.89;97447.50;6214086;23;20011;-71
2021/03/13 13:01:00;;;;;;;2.42;0.60;;;;;;;11.36;49.55;97484.84;6213996;23;20005;-71
2021/03/13 13:03:25;;;;;;;1.30;0.73;;;;;;;11.38;49.84;97477.84;6187329;23;20028;-71
2021/03/13 13:05:50;;;;;;;1.73;0.50;;;;;;;11.17;50.93;97453.69;6213732;23;20005;-71
2021/03/13 13:08:16;;;;;;;2.80;0.70;;;;;;;11.19;52.17;97500.28;6214139;23;20008;-71
2021/03/13 13:10:42;;;;;;;1.30;0.82;;;;;;;10.75;53.25;97477.84;6214944;23;20027;-71
2021/03/13 13:13:20;;;;;;;2.72;1.33;;;;;;;10.57;55.25;97496.69;6215290;23;20008;-71
2021/03/13 13:15:47;;;;;;;1.08;0.70;;;;;;;10.31;57.86;97527.91;6215119;23;20012;-71
2021/03/13 13:18:14;;;;;;;1.10;0.80;;;;;;;9.17;67.85;97587.81;6215539;23;20035;-71
2021/03/13 13:20:39;;;;;;;3.53;0.85;;;;;;;7.10;80.63;97639.78;6214770;23;20001;-71
2021/03/13 13:23:04;;;;;;;1.60;1.00;;;;;;;6.42;84.71;97642.09;6215199;23;20021;-71
2021/03/13 13:25:31;;;;;;;2.20;0.90;;;;;;;6.37;85.43;97652.47;6215037;23;20008;-72
2021/03/13 13:27:56;;;;;;;2.80;0.90;;;;;;;6.23;84.30;97646.75;6215352;23;20001;-72
2021/03/13 13:30:22;;;;;;;0.85;0.63;;;;;;;6.18;84.14;97658.84;6214767;23;20379;-72
2021/03/13 13:32:48;;;;;;;2.03;1.77;;;;;;;6.16;83.87;97660.63;6214824;23;20501;-72
2021/03/13 13:35:14;;;;;;;0.60;0.60;;;;;;;5.96;84.63;97673.00;6214846;23;20009;-71
2021/03/13 13:37:40;;;;;;;0.52;0.52;;;;;;;6.05;84.23;97672.84;6214467;23;20439;-72
2021/03/13 13:40:07;;;;;;;0.88;0.75;;;;;;;6.01;84.47;97677.16;6214934;23;20001;-71
2021/03/13 13:42:33;;;;;;;0.85;0.70;;;;;;;5.91;83.02;97683.31;6214725;23;20039;-72
2021/03/13 13:44:58;;;;;;;3.05;0.60;;;;;;;5.78;82.14;97686.97;6214946;23;20027;-72
2021/03/13 13:47:24;;;;;;;0.50;0.50;;;;;;;5.59;82.55;97668.41;6215000;23;20432;-72
2021/03/13 13:49:49;;;;;;;0.60;0.60;;;;;;;5.55;80.60;97666.78;6214900;23;20447;-72
2021/03/13 13:52:14;;;;;;;1.10;1.10;;;;;;;5.76;81.18;97666.44;6214684;23;20012;-71
2021/03/13 13:54:40;;;;;;;0.60;0.60;;;;;;;5.81;80.84;97654.34;6214975;23;20383;-71
2021/03/13 13:57:05;;;;;;;1.38;0.70;;;;;;;5.87;80.50;97669.66;6214872;23;20054;-71
2021/03/13 13:59:32;;;;;;;0.70;0.70;;;;;;;6.03;80.56;97669.41;6214900;23;20019;-71
2021/03/13 14:01:57;;;;;;;1.42;1.33;;;;;;;6.13;80.96;97666.66;6214356;23;20005;-71
2021/03/13 14:04:22;;;;;;;0.80;0.80;;;;;;;5.86;80.39;97678.25;6214866;23;20106;-71
2021/03/13 14:06:48;;;;;;;0.60;0.60;;;;;;;5.80;80.46;97683.50;6214696;23;20004;-71
2021/03/13 14:09:14;;;;;;;4.05;1.48;;;;;;;5.91;81.61;97686.75;6215164;23;20009;-71
2021/03/13 14:11:39;;;;;;;1.67;0.60;;;;;;;5.96;80.29;97683.28;6214430;23;20001;-71
2021/03/13 14:14:04;;;;;;;0.60;0.60;;;;;;;6.29;80.58;97674.09;6214714;23;20065;-71
2021/03/13 14:16:30;;;;;;;2.05;0.90;;;;;;;6.47;79.61;97681.44;6214253;22;20075;-68
2021/03/13 14:18:55;;;;;;;2.15;0.93;;;;;;;6.52;79.07;97686.50;6244942;22;20012;-67
2021/03/13 14:21:20;;;;;;;0.80;0.80;;;;;;;6.54;78.30;97682.19;6245130;22;20002;-69
2021/03/13 14:23:47;;;;;;;2.15;0.73;;;;;;;6.56;77.94;97670.13;6245326;23;20064;-68
2021/03/13 14:26:12;;;;;;;0.50;0.50;;;;;;;6.61;76.62;97670.91;6244915;22;20419;-70
2021/03/13 14:28:38;;;;;;;0.60;0.60;;;;;;;6.76;75.94;97668.00;6215176;23;20051;-69
2021/03/13 14:31:03;;;;;;;1.45;0.80;;;;;;;6.94;75.54;97677.91;6212856;23;20000;-70
2021/03/13 14:33:28;;;;;;;1.95;0.60;;;;;;;6.85;74.78;97675.53;6214553;23;20347;-67
2021/03/13 14:35:56;;;;;;;4.63;3.40;;;;;;;6.73;72.78;97688.69;6214418;23;20312;-67
2021/03/13 14:38:25;;;;;;;0.60;0.60;;;;;;;6.67;73.52;97694.81;6214490;23;20011;-72
2021/03/13 14:40:51;;;;;;;1.00;0.50;;;;;;;6.67;72.56;97691.34;6214106;23;20068;-66
2021/03/13 14:43:18;;;;;;;1.75;0.63;;;;;;;6.59;74.76;97696.66;6212984;23;20028;-68
2021/03/13 14:45:44;;;;;;;1.23;0.60;;;;;;;6.44;72.64;97686.69;6214432;23;20312;-69
2021/03/13 14:48:10;;;;;;;0.90;0.70;;;;;;;6.47;74.11;97690.91;6214284;23;20011;-69
2021/03/13 14:50:35;;;;;;;0.93;0.70;;;;;;;6.49;73.87;97695.16;6214411;23;20075;-68
2021/03/13 14:53:00;;;;;;;3.13;0.63;;;;;;;6.44;72.65;97695.25;6212653;23;20087;-69
2021/03/13 14:55:26;;;;;;;3.40;0.80;;;;;;;6.47;73.12;97703.75;6214766;23;20004;-69
2021/03/13 14:57:51;;;;;;;1.10;0.90;;;;;;;6.46;72.71;97684.06;6212722;23;20001;-69
2021/03/13 15:00:18;;;;;;;3.33;0.93;;;;;;;6.46;72.63;97700.34;6214692;23;20051;-71
2021/03/13 15:02:44;;;;;;;1.55;0.75;;;;;;;6.56;70.73;97683.00;6214126;23;20416;-75
2021/03/13 15:05:10;;;;;;;0.88;0.75;;;;;;;6.57;70.53;97687.25;6214326;23;20063;-70
2021/03/13 15:07:36;;;;;;;0.80;0.70;;;;;;;6.64;70.96;97686.28;6214289;23;20035;-69
2021/03/13 15:10:03;;;;;;;1.23;0.80;;;;;;;6.61;70.05;97699.19;6212766;23;20004;-69
2021/03/13 15:12:29;;;;;;;1.35;0.93;;;;;;;6.50;69.17;97701.16;6212397;23;20007;-68
2021/03/13 15:14:54;;;;;;;3.95;0.80;;;;;;;6.56;69.97;97701.03;6214255;23;20036;-69
2021/03/13 15:17:20;;;;;;;2.47;0.60;;;;;;;6.34;68.65;97670.56;6213995;23;20012;-69
2021/03/13 15:19:46;;;;;;;4.10;2.45;;;;;;;6.29;69.69;97672.38;6214577;23;20011;-69
2021/03/13 15:22:11;;;;;;;1.33;0.65;;;;;;;6.27;69.38;97656.09;6214138;23;20001;-69
2021/03/13 15:24:36;;;;;;;0.60;0.60;;;;;;;6.23;68.27;97657.03;6214432;23;20336;-68
2021/03/13 15:27:02;;;;;;;2.15;0.80;;;;;;;6.32;69.66;97641.44;6211380;23;20080;-69
2021/03/13 15:29:28;;;;;;;0.85;0.75;;;;;;;6.28;69.38;97639.78;6208364;23;20008;-68
2021/03/13 15:31:53;;;;;;;1.65;0.80;;;;;;;6.25;69.61;97639.88;6208086;23;20462;-68
2021/03/13 15:34:18;;;;;;;1.30;0.63;;;;;;;6.24;70.19;97638.19;6207680;23;20505;-68
2021/03/13 15:36:44;;;;;;;0.60;0.60;;;;;;;6.21;70.53;97635.66;6209832;23;20474;-68
2021/03/13 15:39:10;;;;;;;0.63;0.63;;;;;;;6.08;71.23;97611.03;6210173;23;20690;-68
2021/03/13 15:41:39;;;;;;;1.17;0.70;;;;;;;5.96;71.63;97606.16;6209766;23;20431;-68
2021/03/13 15:44:06;;;;;;;1.02;0.70;;;;;;;5.97;72.81;97607.84;6209752;23;20028;-68
2021/03/13 15:46:33;;;;;;;2.53;0.60;;;;;;;5.75;72.45;97639.00;6207640;23;20009;-68
2021/03/13 15:48:59;;;;;;;0.50;0.50;;;;;;;5.80;73.74;97642.38;6208229;23;20490;-68
2021/03/13 15:51:24;;;;;;;0.50;0.50;;;;;;;5.74;72.71;97637.31;6209511;23;20011;-68
2021/03/13 15:53:50;;;;;;;1.17;0.68;;;;;;;5.86;73.41;97637.13;6211279;23;20436;-68
2021/03/13 15:56:15;;;;;;;2.38;1.83;;;;;;;5.79;73.00;97645.81;6211787;23;20008;-69
2021/03/13 15:58:41;;;;;;;34.55;13.50;;;;;;;5.82;72.94;97640.63;6211511;23;20176;-69
2021/03/13 16:01:06;;;;;;;1.70;1.00;;;;;;;5.74;73.86;97651.91;6211888;23;20489;-69
2021/03/13 16:03:32;;;;;;;4.65;1.50;;;;;;;5.76;73.98;97635.59;6207474;23;20015;-68
2021/03/13 16:06:01;;;;;;;5.10;1.58;;;;;;;5.74;74.19;97645.03;6205323;23;20347;-70
2021/03/13 16:08:27;;;;;;;5.23;2.77;;;;;;;5.77;74.51;97657.84;6207087;23;20015;-70
2021/03/13 16:10:53;;;;;;;4.63;2.80;;;;;;;5.78;73.92;97654.41;6204752;23;20005;-71
2021/03/13 16:13:19;;;;;;;4.85;1.35;;;;;;;5.78;74.94;97649.25;6205185;23;20067;-67
2021/03/13 16:15:44;;;;;;;3.67;1.67;;;;;;;5.74;74.40;97647.59;6205934;23;20008;-69
2021/03/13 16:18:09;;;;;;;3.20;1.80;;;;;;;5.72;74.24;97638.25;6202859;23;20443;-75
2021/03/13 16:20:35;;;;;;;4.65;2.15;;;;;;;5.72;74.63;97653.66;6201132;23;20067;-75
2021/03/13 16:23:00;;;;;;;7.43;3.35;;;;;;;5.73;75.27;97643.34;6201929;23;20446;-75
2021/03/13 16:25:26;;;;;;;4.05;1.20;;;;;;;5.80;74.57;97657.81;6202561;23;20014;-75
2021/03/13 16:27:51;;;;;;;1.00;0.88;;;;;;;5.76;74.40;97640.75;6201208;23;20059;-75
2021/03/13 16:30:17;;;;;;;2.58;1.00;;;;;;;5.76;73.96;97630.47;6202897;23;20012;-75
2021/03/13 16:32:42;;;;;;;3.60;1.13;;;;;;;5.84;74.80;97627.72;6202842;23;20001;-75
2021/03/13 16:35:09;;;;;;;1.40;1.30;;;;;;;5.82;74.02;97627.78;6206147;23;20008;-75
2021/03/13 16:37:35;;;;;;;1.13;1.10;;;;;;;5.78;73.66;97631.25;6206624;23;20450;-74
2021/03/13 16:40:01;;;;;;;2.22;0.90;;;;;;;5.86;74.44;97637.13;6207732;23;20012;-75
2021/03/13 16:42:26;;;;;;;3.22;1.92;;;;;;;5.86;74.47;97626.84;6207894;23;20004;-74
2021/03/13 16:44:52;;;;;;;8.50;4.43;;;;;;;5.89;74.37;97624.19;6207876;23;20781;-75
2021/03/13 16:47:17;;;;;;;4.20;2.40;;;;;;;5.98;74.28;97630.09;6210838;23;20066;-75
2021/03/13 16:49:42;;;;;;;1.80;1.10;;;;;;;5.96;73.85;97631.84;6211390;23;20529;-75
2021/03/13 16:52:09;;;;;;;10.35;4.47;;;;;;;6.02;73.63;97627.44;6210959;23;20404;-76
2021/03/13 16:54:35;;;;;;;1.58;1.27;;;;;;;5.99;73.69;97626.63;6209679;23;20372;-75
2021/03/13 16:57:00;;;;;;;1.45;0.90;;;;;;;5.85;73.95;97630.31;6211169;23;20030;-75
2021/03/13 16:59:25;;;;;;;1.92;1.55;;;;;;;5.78;74.02;97633.00;6211252;23;20004;-75
2021/03/13 17:01:51;;;;;;;3.33;2.03;;;;;;;5.66;74.30;97639.19;6211115;23;20161;-75
2021/03/13 17:04:16;;;;;;;12.05;6.55;;;;;;;5.52;75.00;97639.41;6209300;23;20008;-75
2021/03/13 17:06:42;;;;;;;1.00;0.90;;;;;;;5.46;75.47;97636.09;6211106;23;20005;-67
2021/03/13 17:09:08;;;;;;;4.07;1.83;;;;;;;5.43;75.37;97628.44;6211067;23;20058;-68
2021/03/13 17:11:33;;;;;;;2.03;1.42;;;;;;;5.38;74.96;97629.38;6210795;23;20050;-67
2021/03/13 17:13:58;;;;;;;6.97;3.55;;;;;;;5.35;74.66;97634.53;6209474;23;20009;-67
2021/03/13 17:16:24;;;;;;;16.88;8.55;;;;;;;5.33;74.84;97630.31;6210987;23;20012;-67
2021/03/13 17:18:49;;;;;;;13.68;5.68;;;;;;;5.29;74.48;97619.22;6210899;23;20013;-67
2021/03/13 17:21:15;;;;;;;3.35;1.20;;;;;;;5.26;75.00;97621.00;6209495;23;20076;-67
2021/03/13 17:23:40;;;;;;;10.20;4.00;;;;;;;5.25;75.43;97638.13;6211049;23;20012;-67
2021/03/13 17:26:05;;;;;;;3.55;2.20;;;;;;;5.18;75.71;97645.97;6210962;23;20067;-67
2021/03/13 17:28:31;;;;;;;2.17;1.80;;;;;;;5.18;75.87;97644.25;6209397;23;20024;-68
2021/03/13 17:30:56;;;;;;;2.28;1.73;;;;;;;5.21;75.49;97640.75;6210600;23;20336;-67
2021/03/13 17:33:22;;;;;;;1.95;1.00;;;;;;;5.23;75.74;97655.28;6209325;23;20008;-67
2021/03/13 17:35:47;;;;;;;4.68;2.03;;;;;;;5.21;75.50;97649.31;6210968;23;20008;-67
2021/03/13 17:38:13;;;;;;;2.35;1.35;;;;;;;5.24;75.96;97654.41;6211054;23;20033;-68
2021/03/13 17:40:39;;;;;;;1.10;0.93;;;;;;;5.39;75.72;97646.47;6211003;23;20088;-67
2021/03/13 17:43:07;;;;;;;4.43;1.42;;;;;;;5.26;74.93;97655.22;6207941;23;20367;-67
2021/03/13 17:45:33;;;;;;;1.70;1.23;;;;;;;5.21;75.28;97666.44;6209869;23;20015;-68
2021/03/13 17:47:58;;;;;;;2.35;0.93;;;;;;;5.22;75.88;97681.84;6210778;23;20008;-68
2021/03/13 17:50:23;;;;;;;1.15;1.02;;;;;;;5.28;75.44;97666.34;6210836;23;20011;-68
2021/03/13 17:52:49;;;;;;;1.10;1.00;;;;;;;5.31;75.20;97673.13;6210685;23;20782;-68
2021/03/13 17:55:15;;;;;;;2.15;0.88;;;;;;;5.39;75.29;97667.00;6210601;23;20340;-68
2021/03/13 17:57:40;;;;;;;1.52;1.00;;;;;;;5.31;75.03;97668.84;6208940;23;20376;-69
2021/03/13 18:00:06;;;;;;;3.15;1.30;;;;;;;5.35;74.74;97670.50;6210547;23;20011;-68
2021/03/13 18:02:31;;;;;;;2.78;1.45;;;;;;;5.33;74.63;97664.53;6210854;23;20000;-74
2021/03/13 18:04:57;;;;;;;4.55;1.48;;;;;;;5.35;74.60;97674.78;6210854;23;20012;-69
2021/03/13 18:07:23;;;;;;;1.13;1.00;;;;;;;5.31;74.90;97668.84;6210455;23;20008;-70
2021/03/13 18:09:48;;;;;;;23.50;12.25;;;;;;;5.37;74.57;97679.03;6210491;23;20031;-69
2021/03/13 18:12:13;;;;;;;2.33;1.17;;;;;;;5.41;74.81;97685.84;6210238;23;20681;-67
2021/03/13 18:14:41;;;;;;;6.22;1.15;;;;;;;5.44;74.43;97694.34;6210255;23;20386;-68
2021/03/13 18:17:07;;;;;;;2.92;1.02;;;;;;;5.35;75.66;97695.34;6210136;23;20015;-68
2021/03/13 18:19:32;;;;;;;10.68;2.03;;;;;;;5.38;75.16;97695.31;6210425;23;20008;-68
2021/03/13 18:21:58;;;;;;;3.95;1.02;;;;;;;5.36;74.78;97705.56;6210407;23;20118;-68
2021/03/13 18:24:23;;;;;;;2.50;1.30;;;;;;;5.30;74.84;97703.09;6210420;23;20012;-67
2021/03/13 18:26:49;;;;;;;3.47;1.60;;;;;;;5.33;75.06;97717.63;6210250;23;20082;-68
2021/03/13 18:29:14;;;;;;;24.25;11.95;;;;;;;5.33;75.12;97722.78;6210340;23;20004;-68
2021/03/13 18:31:41;;;;;;;3.95;1.88;;;;;;;5.50;74.73;97719.94;6210054;23;20032;-67
2021/03/13 18:34:08;;;;;;;5.75;1.50;;;;;;;5.31;75.36;97725.34;6210343;23;20005;-71
2021/03/13 18:36:34;;;;;;;4.03;1.63;;;;;;;5.27;74.58;97727.97;6210069;23;20015;-69
2021/03/13 18:38:59;;;;;;;3.28;1.52;;;;;;;5.34;74.99;97734.72;6210784;23;20080;-79